D/T METAR WX W/DIR W/SPE G/SPE TEMP DEWP
15/01/19 20:30 EIWF 152030Z 26011KT 220V310 9999 FEW012 SCT025 09/07 Q1011 W (260°) 12.7mph 9°C 7°C
15/01/19 20:00 EIWF 152000Z 26011KT 220V310 9999 FEW012 SCT025 09/07 Q1011 W (260°) 12.7mph 9°C 7°C
15/01/19 19:30 EIWF 151930Z 24011KT 210V280 9999 SCT011 BKN020 09/08 Q1011 WSW (240°) 12.7mph 9°C 8°C
15/01/19 19:00 EIWF 151900Z 25011KT 220V290 9999 FEW018 BKN025 09/07 Q1012 WSW (250°) 12.7mph 9°C 7°C
15/01/19 18:30 EIWF 151830Z 26012G22KT 230V300 9999 FEW018 SCT034 09/07 Q1012 W (260°) 13.8mph 25.3mph 9°C 7°C
15/01/19 18:00 EIWF 151800Z 26010G20KT 210V300 9999 SCT013 09/07 Q1013 W (260°) 11.5mph 23.0mph 9°C 7°C
15/01/19 17:30 EIWF 151730Z 26010KT 210V310 9999 FEW009 BKN028 09/08 Q1013 W (260°) 11.5mph 9°C 8°C
15/01/19 17:00 EIWF 151700Z 25011KT 210V280 9999 SCT008 BKN013 09/08 Q1013 WSW (250°) 12.7mph 9°C 8°C
15/01/19 16:30 EIWF 151630Z 25013KT 210V280 9999 SCT009 BKN017 09/08 Q1014 WSW (250°) 15.0mph 9°C 8°C
15/01/19 16:00 EIWF 151600Z 25013KT 210V280 9999 FEW011 SCT013 BKN020 09/08 Q1014 WSW (250°) 15.0mph 9°C 8°C
15/01/19 15:30 EIWF 151530Z 25014KT 220V280 9999 SCT008 BKN025 09/08 Q1014 WSW (250°) 16.1mph 9°C 8°C
15/01/19 15:00 EIWF 151500Z 25011KT 220V290 9999 SCT006 BKN030 09/08 Q1015 WSW (250°) 12.7mph 9°C 8°C
15/01/19 14:30 EIWF 151430Z 25013KT 220V290 5000 SCT008 SCT011 BKN030 10/08 Q1015 WSW (250°) 15.0mph 10°C 8°C
15/01/19 14:00 EIWF 151400Z 25011KT 220V310 9999 SCT009 BKN018 10/08 Q1015 WSW (250°) 12.7mph 10°C 8°C
15/01/19 13:30 EIWF 151330Z 27008KT 230V300 9999 SCT011 BKN019 10/07 Q1016 W (270°) 9.2mph 10°C 7°C
15/01/19 13:00 EIWF 151300Z 27007KT 240V300 9999 BKN010 10/08 Q1017 W (270°) 8.1mph 10°C 8°C
15/01/19 12:30 EIWF 151230Z 27007KT 220V310 9999 BKN007 09/08 Q1017 W (270°) 8.1mph 9°C 8°C
15/01/19 12:00 EIWF 151200Z 26006KT 220V300 9999 BKN007 09/07 Q1018 W (260°) 6.9mph 9°C 7°C
15/01/19 11:30 EIWF 151130Z 28007KT 230V330 9999 BKN007 08/07 Q1018 W (280°) 8.1mph 8°C 7°C
15/01/19 11:00 EIWF 151100Z 26007KT 220V310 9999 BKN008 08/07 Q1018 W (260°) 8.1mph 8°C 7°C
15/01/19 10:30 EIWF 151030Z 27004KT 220V310 9999 SCT007 SCT021 BKN032 08/07 Q1019 W (270°) 4.6mph 8°C 7°C
15/01/19 10:00 EIWF 151000Z 26004KT 200V310 9999 FEW023 SCT032 07/06 Q1019 W (260°) 4.6mph 7°C 6°C
15/01/19 09:30 EIWF 150930Z 27004KT 230V310 9999 FEW007 SCT028 07/06 Q1019 W (270°) 4.6mph 7°C 6°C
15/01/19 09:00 EIWF 150900Z 29004KT 9999 BKN005 07/06 Q1019 WNW (290°) 4.6mph 7°C 6°C
15/01/19 08:30 EIWF 150830Z 28004KT 250V310 9999 BKN004 07/06 Q1019 W (280°) 4.6mph 7°C 6°C
15/01/19 08:00 EIWF 150800Z 28006KT 240V310 9999 BKN004 07/07 Q1019 W (280°) 6.9mph 7°C 7°C
14/01/19 20:30 EIWF 142030Z 26006KT 220V300 9999 BKN027 08/05 Q1024 W (260°) 6.9mph 8°C 5°C
14/01/19 20:00 EIWF 142000Z 26005KT 210V300 9999 BKN023 08/05 Q1024 W (260°) 5.8mph 8°C 5°C
14/01/19 19:30 EIWF 141930Z 27006KT 240V310 9999 BKN022 08/05 Q1024 W (270°) 6.9mph 8°C 5°C
14/01/19 19:00 EIWF 141900Z 27006KT 240V300 9999 BKN023 07/04 Q1024 W (270°) 6.9mph 7°C 4°C
14/01/19 18:30 EIWF 141830Z VRB03KT 9999 BKN026 07/05 Q1024 N (0°) 3.5mph 7°C 5°C
14/01/19 18:00 EIWF 141800Z 28004KT 250V310 9999 SCT025 07/05 Q1024 W (280°) 4.6mph 7°C 5°C
14/01/19 16:00 EIWF 141600Z 28004KT 250V310 9999 BKN026 08/05 Q1025 W (280°) 4.6mph 8°C 5°C
14/01/19 15:30 EIWF 141530Z VRB03KT 9999 BKN027 09/05 Q1025 N (0°) 3.5mph 9°C 5°C
14/01/19 15:00 EIWF 141500Z VRB03KT 9999 BKN023 09/05 Q1025 N (0°) 3.5mph 9°C 5°C
14/01/19 14:30 EIWF 141430Z VRB03KT 9999 BKN025 09/04 Q1025 N (0°) 3.5mph 9°C 4°C
14/01/19 14:00 EIWF 141400Z 29006KT 260V330 9999 BKN026 09/04 Q1025 WNW (290°) 6.9mph 9°C 4°C
14/01/19 13:30 EIWF 141330Z 31006KT 280V350 9999 BKN030 09/04 Q1025 NW (310°) 6.9mph 9°C 4°C
14/01/19 13:00 EIWF 141300Z 31006KT 260V350 9999 BKN032 09/04 Q1025 NW (310°) 6.9mph 9°C 4°C
14/01/19 12:30 EIWF 141230Z 32006KT 280V350 9999 BKN033 09/04 Q1025 NW (320°) 6.9mph 9°C 4°C
14/01/19 12:00 EIWF 141200Z 30005KT 260V350 9999 BKN035 09/04 Q1025 WNW (300°) 5.8mph 9°C 4°C
14/01/19 11:30 EIWF 141130Z 30004KT 260V320 9999 BKN033 08/04 Q1026 WNW (300°) 4.6mph 8°C 4°C
14/01/19 11:00 EIWF 141100Z 27002KT 9999 BKN032 08/04 Q1026 W (270°) 2.3mph 8°C 4°C
14/01/19 10:30 EIWF 141030Z 32002KT 9999 BKN031 08/04 Q1025 NW (320°) 2.3mph 8°C 4°C
14/01/19 10:00 EIWF 141000Z 32004KT 300V360 9999 BKN034 08/03 Q1025 NW (320°) 4.6mph 8°C 3°C
14/01/19 09:30 EIWF 140930Z VRB03KT 9999 BKN033 07/03 Q1025 N (0°) 3.5mph 7°C 3°C
14/01/19 09:00 EIWF 140900Z 33004KT 9999 BKN033 06/03 Q1025 NNW (330°) 4.6mph 6°C 3°C
14/01/19 08:30 EIWF 140830Z 31004KT 280V350 9999 BKN032 07/03 Q1025 NW (310°) 4.6mph 7°C 3°C
14/01/19 08:00 EIWF 140800Z 33004KT 290V350 9999 BKN031 07/03 Q1025 NNW (330°) 4.6mph 7°C 3°C
13/01/19 20:30 EIWF 132030Z 35007KT 310V030 9999 BKN025 09/05 Q1021 N (350°) 8.1mph 9°C 5°C
13/01/19 20:00 EIWF 132000Z 33006KT 9999 FEW027 BKN030 09/05 Q1021 NNW (330°) 6.9mph 9°C 5°C
13/01/19 19:30 EIWF 131930Z 32007KT 280V360 9999 SCT032 BKN037 09/06 Q1021 NW (320°) 8.1mph 9°C 6°C
13/01/19 19:00 EIWF 131900Z 33008KT 9999 SCT027 09/06 Q1020 NNW (330°) 9.2mph 9°C 6°C
13/01/19 18:30 EIWF 131830Z 33010KT 9999 SCT025 09/06 Q1020 NNW (330°) 11.5mph 9°C 6°C
13/01/19 18:00 EIWF 131800Z 32012KT 280V360 9999 SCT020 10/06 Q1019 NW (320°) 13.8mph 10°C 6°C
13/01/19 17:30 EIWF 131730Z 32015G25KT 290V350 9999 SCT020 10/07 Q1019 NW (320°) 17.3mph 28.8mph 10°C 7°C
13/01/19 17:00 EIWF 131700Z 32012KT 290V360 9999 FEW013 SCT027 10/08 Q1019 NW (320°) 13.8mph 10°C 8°C
13/01/19 16:30 EIWF 131630Z 32012KT 290V360 9999 -RA SCT013 BKN016 11/09 Q1019 -RA NW (320°) 13.8mph 11°C 9°C
13/01/19 16:00 EIWF 131600Z 32013G23KT 290V020 9999 BKN015 11/08 Q1019 NW (320°) 15.0mph 26.5mph 11°C 8°C
13/01/19 15:30 EIWF 131530Z 32015KT 280V350 9999 BKN018 11/08 Q1018 NW (320°) 17.3mph 11°C 8°C
13/01/19 15:00 EIWF 131500Z 33016KT 9999 FEW018 SCT023 11/08 Q1018 NNW (330°) 18.4mph 11°C 8°C
13/01/19 14:30 EIWF 131430Z 32017G28KT 280V360 9999 BKN018 12/08 Q1018 NW (320°) 19.6mph 32.2mph 12°C 8°C
13/01/19 14:00 EIWF 131400Z 33019G31KT 9999 FEW020 SCT026 11/08 Q1018 NNW (330°) 21.9mph 35.7mph 11°C 8°C
13/01/19 13:30 EIWF 131330Z 32019G31KT 290V350 9999 FEW020 SCT028 11/08 Q1018 NW (320°) 21.9mph 35.7mph 11°C 8°C
13/01/19 13:00 EIWF 131300Z 31015KT 280V360 9999 FEW020 SCT028 11/08 Q1019 NW (310°) 17.3mph 11°C 8°C
13/01/19 12:30 EIWF 131230Z 31013G24KT 280V360 9999 FEW018 SCT025 11/08 Q1019 NW (310°) 15.0mph 27.6mph 11°C 8°C
13/01/19 12:00 EIWF 131200Z 31014KT 260V350 9999 FEW020 SCT028 11/08 Q1019 NW (310°) 16.1mph 11°C 8°C
13/01/19 11:30 EIWF 131130Z VRB03G14KT 9999 SCT018 11/08 Q1020 N (0°) 3.5mph 16.1mph 11°C 8°C
13/01/19 11:00 EIWF 131100Z VRB02KT 9999 SCT018 BKN024 11/08 Q1020 N (0°) 2.3mph 11°C 8°C
13/01/19 10:30 EIWF 131030Z 30007KT 260V330 9999 SCT017 SCT028 10/07 Q1021 WNW (300°) 8.1mph 10°C 7°C
13/01/19 10:00 EIWF 131000Z 31006KT 290V010 9999 SCT020 BKN024 09/07 Q1021 NW (310°) 6.9mph 9°C 7°C
13/01/19 09:30 EIWF 130930Z 32005KT 280V350 9999 BKN022 09/06 Q1021 NW (320°) 5.8mph 9°C 6°C
13/01/19 09:00 EIWF 130900Z 32008KT 280V360 9999 SCT017 09/06 Q1021 NW (320°) 9.2mph 9°C 6°C
13/01/19 08:30 EIWF 130830Z 32011KT 280V350 9999 FEW020 09/06 Q1021 NW (320°) 12.7mph 9°C 6°C
13/01/19 08:00 EIWF 130800Z 31005KT 260V360 9999 FEW019 SCT052 09/06 Q1021 NW (310°) 5.8mph 9°C 6°C
12/01/19 20:30 EIWF 122030Z 33004KT CAVOK 08/07 Q1026 NNW (330°) 4.6mph 8°C 7°C
12/01/19 20:00 EIWF 122000Z 30007KT 270V350 9999 SCT018 09/08 Q1026 WNW (300°) 8.1mph 9°C 8°C
12/01/19 19:30 EIWF 121930Z 32009KT 9999 SCT018 10/08 Q1026 NW (320°) 10.4mph 10°C 8°C
12/01/19 19:00 EIWF 121900Z 32011KT 9999 SCT015 09/08 Q1026 NW (320°) 12.7mph 9°C 8°C
12/01/19 18:30 EIWF 121830Z 33015KT 290V360 9999 SCT015 10/08 Q1026 NNW (330°) 17.3mph 10°C 8°C
12/01/19 18:00 EIWF 121800Z 32013KT 9999 SCT015 10/08 Q1026 NW (320°) 15.0mph 10°C 8°C
12/01/19 17:30 EIWF 121730Z 33013G23KT 280V360 9999 SCT014 10/08 Q1026 NNW (330°) 15.0mph 26.5mph 10°C 8°C
12/01/19 17:00 EIWF 121700Z 33015KT 290V360 9999 SCT012 10/08 Q1026 NNW (330°) 17.3mph 10°C 8°C
12/01/19 16:30 EIWF 121630Z 33011KT 290V010 9999 SCT013 10/08 Q1026 NNW (330°) 12.7mph 10°C 8°C
12/01/19 16:00 EIWF 121600Z 33009KT 280V020 9999 SCT013 10/08 Q1026 NNW (330°) 10.4mph 10°C 8°C
12/01/19 15:30 EIWF 121530Z 33015G25KT 9999 SCT013 10/08 Q1026 NNW (330°) 17.3mph 28.8mph 10°C 8°C
12/01/19 15:00 EIWF 121500Z 34016G26KT 310V010 9999 SCT012 10/08 Q1026 NNW (340°) 18.4mph 29.9mph 10°C 8°C
12/01/19 14:30 EIWF 121430Z 34014G25KT 300V020 9999 SCT015 10/08 Q1026 NNW (340°) 16.1mph 28.8mph 10°C 8°C
12/01/19 14:00 EIWF 121400Z 34016KT 310V010 9999 FEW012 10/07 Q1026 NNW (340°) 18.4mph 10°C 7°C
12/01/19 13:30 EIWF 121330Z 34017G27KT 300V010 9999 FEW012 SCT025 11/08 Q1026 NNW (340°) 19.6mph 31.1mph 11°C 8°C
12/01/19 13:00 EIWF 121300Z 34019G29KT 9999 FEW012 SCT025 10/07 Q1026 NNW (340°) 21.9mph 33.4mph 10°C 7°C
12/01/19 12:30 EIWF 121230Z 34017G27KT 300V010 9999 FEW018 10/07 Q1026 NNW (340°) 19.6mph 31.1mph 10°C 7°C
12/01/19 12:00 EIWF 121200Z 34015KT 310V020 9999 FEW018 09/06 Q1027 NNW (340°) 17.3mph 9°C 6°C
12/01/19 11:30 EIWF 121130Z 33014KT 300V010 9999 SCT018 09/06 Q1028 NNW (330°) 16.1mph 9°C 6°C
12/01/19 10:30 EIWF 121030Z 34019G30KT 9999 SCT018 09/07 Q1027 NNW (340°) 21.9mph 34.5mph 9°C 7°C
12/01/19 10:00 EIWF 121000Z 34015KT 310V010 9999 FEW013 SCT018 09/07 Q1027 NNW (340°) 17.3mph 9°C 7°C
12/01/19 09:30 EIWF 120930Z 32012KT 290V360 9999 SCT014 SCT030 09/07 Q1027 NW (320°) 13.8mph 9°C 7°C
12/01/19 09:00 EIWF 120900Z 32010KT 280V360 9999 SCT014 BKN030 09/07 Q1028 NW (320°) 11.5mph 9°C 7°C
12/01/19 08:30 EIWF 120830Z 32010G21KT 260V010 9999 FEW017 SCT030 09/06 Q1027 R03/0///// NW (320°) 11.5mph 24.2mph 9°C 6°C
12/01/19 08:00 EIWF 120800Z 33010KT 290V010 9999 SCT017 BKN030 09/06 Q1027 R03/1///// NNW (330°) 11.5mph 9°C 6°C
11/01/19 20:30 EIWF 112030Z 28003KT 9999 SCT018 BKN023 09/08 Q1033 W (280°) 3.5mph 9°C 8°C
11/01/19 20:00 EIWF 112000Z VRB02KT 9999 FEW011 BKN017 09/08 Q1033 N (0°) 2.3mph 9°C 8°C
11/01/19 19:30 EIWF 111930Z VRB02KT 9999 BKN020 09/07 Q1033 N (0°) 2.3mph 9°C 7°C
11/01/19 19:00 EIWF 111900Z VRB03KT 9999 BKN024 09/07 Q1033 N (0°) 3.5mph 9°C 7°C
11/01/19 18:30 EIWF 111830Z 28003KT 9999 BKN021 BKN028 09/07 Q1033 W (280°) 3.5mph 9°C 7°C
11/01/19 17:30 EIWF 111730Z 25001KT 9999 SCT025 BKN029 09/07 Q1033 WSW (250°) 1.2mph 9°C 7°C
11/01/19 17:00 EIWF 111700Z VRB01KT 9999 SCT021 BKN025 09/07 Q1033 N (0°) 1.2mph 9°C 7°C
11/01/19 16:30 EIWF 111630Z VRB01KT 9999 BKN023 09/07 Q1033 N (0°) 1.2mph 9°C 7°C
11/01/19 16:00 EIWF 111600Z 26001KT 9999 BKN029 10/07 Q1033 W (260°) 1.2mph 10°C 7°C
11/01/19 15:30 EIWF 111530Z VRB02KT 9999 BKN025 10/07 Q1033 N (0°) 2.3mph 10°C 7°C
11/01/19 15:00 EIWF 111500Z 33004KT 9999 BKN027 10/07 Q1034 NNW (330°) 4.6mph 10°C 7°C
11/01/19 14:30 EIWF 111430Z 34004KT 9999 BKN027 10/07 Q1034 NNW (340°) 4.6mph 10°C 7°C
11/01/19 14:00 EIWF 111400Z 34005KT 9999 FEW028 BKN035 10/08 Q1034 NNW (340°) 5.8mph 10°C 8°C
11/01/19 13:30 EIWF 111330Z 31004KT 9999 BKN039 10/07 Q1034 NW (310°) 4.6mph 10°C 7°C
11/01/19 13:00 EIWF 111300Z 33004KT 300V360 9999 BKN038 10/07 Q1034 NNW (330°) 4.6mph 10°C 7°C
11/01/19 12:30 EIWF 111230Z 32004KT 290V350 9999 BKN036 09/06 Q1035 NW (320°) 4.6mph 9°C 6°C
11/01/19 12:00 EIWF 111200Z 34004KT 9999 BKN041 09/06 Q1035 NNW (340°) 4.6mph 9°C 6°C
11/01/19 11:30 EIWF 111130Z 34002KT 9999 BKN043 09/06 Q1035 NNW (340°) 2.3mph 9°C 6°C
11/01/19 11:00 EIWF 111100Z 00000KT CAVOK 09/06 Q1035 N (0°) 9°C 6°C
11/01/19 10:30 EIWF 111030Z 01001KT CAVOK 09/06 Q1035 N (10°) 1.2mph 9°C 6°C
11/01/19 10:00 EIWF 111000Z 34001KT CAVOK 08/06 Q1035 NNW (340°) 1.2mph 8°C 6°C
11/01/19 09:30 EIWF 110930Z 31002KT CAVOK 07/05 Q1035 NW (310°) 2.3mph 7°C 5°C
11/01/19 09:00 EIWF 110900Z 00000KT CAVOK 06/04 Q1035 N (0°) 6°C 4°C
11/01/19 08:30 EIWF 110830Z VRB02KT CAVOK 07/04 Q1035 N (0°) 2.3mph 7°C 4°C
11/01/19 08:00 EIWF 110800Z 35002KT CAVOK 07/05 Q1035 N (350°) 2.3mph 7°C 5°C
10/01/19 22:00 EIWF 102200Z 35003KT 9000 SCT048 08/08 Q1035 R03/1///// N (350°) 3.5mph 8°C 8°C
10/01/19 21:30 EIWF 102130Z VRB03KT 8000 BKN049 08/07 Q1035 R03/1///// N (0°) 3.5mph 8°C 7°C
10/01/19 21:00 EIWF 102100Z 36003KT 8000 BKN047 09/08 Q1035 R03/1///// N (360°) 3.5mph 9°C 8°C
10/01/19 20:30 EIWF 102030Z 36003KT 8000 BKN046 09/08 Q1034 R03/1///// N (360°) 3.5mph 9°C 8°C
10/01/19 20:00 EIWF 102000Z 34001KT 8000 BKN046 09/08 Q1034 R03/1///// NNW (340°) 1.2mph 9°C 8°C
10/01/19 19:30 EIWF 101930Z 36002KT 8000 BKN046 08/08 Q1034 R03/1///// N (360°) 2.3mph 8°C 8°C
10/01/19 19:00 EIWF 101900Z 35001KT 8000 SCT020 BKN046 08/08 Q1034 R03/1///// N (350°) 1.2mph 8°C 8°C
10/01/19 18:30 EIWF 101830Z 36001KT 9000 BKN044 08/08 Q1034 R03/1///// N (360°) 1.2mph 8°C 8°C
10/01/19 18:00 EIWF 101800Z 36003KT 9000 SCT042 09/08 Q1034 R03/1///// N (360°) 3.5mph 9°C 8°C
10/01/19 17:30 EIWF 101730Z 02001KT 9999 BKN022 09/08 Q1034 R03/1///// NNE (20°) 1.2mph 9°C 8°C
10/01/19 17:00 EIWF 101700Z 05002KT 9999 SCT010 BKN013 10/09 Q1034 R03/1///// NE (50°) 2.3mph 10°C 9°C
10/01/19 16:30 EIWF 101630Z 05002KT 9999 SCT012 BKN020 09/08 Q1033 R03/1///// NE (50°) 2.3mph 9°C 8°C
10/01/19 16:00 EIWF 101600Z 05004KT 9999 SCT008 BKN016 10/09 Q1033 R03/1///// NE (50°) 4.6mph 10°C 9°C
10/01/19 15:30 EIWF 101530Z 05002KT 9999 BKN025 10/09 Q1033 R03/1///// NE (50°) 2.3mph 10°C 9°C
10/01/19 15:00 EIWF 101500Z VRB02KT 9999 SCT015 BKN021 10/09 Q1033 REDZ R03/1///// N (0°) 2.3mph 10°C 9°C
10/01/19 14:30 EIWF 101430Z 03003KT 4000 DZ BKN004 10/09 Q1033 R03/1///// DZ NNE (30°) 3.5mph 10°C 9°C
10/01/19 14:00 EIWF 101400Z VRB03KT 9999 SCT005 BKN010 10/09 Q1033 N (0°) 3.5mph 10°C 9°C
10/01/19 13:30 EIWF 101330Z 02004KT 350V060 9999 BKN009 11/09 Q1033 NNE (20°) 4.6mph 11°C 9°C
10/01/19 13:00 EIWF 101300Z VRB03KT 9999 BKN007 10/09 Q1033 N (0°) 3.5mph 10°C 9°C